createdAt,value
2023-05-19T00:01:00.482Z,6.91
2023-05-19T00:03:27.329Z,6.87
2023-05-19T00:05:54.081Z,6.83
2023-05-19T00:08:23.452Z,6.82
2023-05-19T00:10:50.054Z,6.84
2023-05-19T00:13:16.745Z,6.86
2023-05-19T00:20:14.183Z,6.93
2023-05-19T00:22:40.690Z,6.85
2023-05-19T00:25:07.437Z,6.82
2023-05-19T00:27:34.468Z,6.74
2023-05-19T00:30:00.875Z,6.77
2023-05-19T00:32:27.310Z,6.84
2023-05-19T00:34:54.023Z,6.84
2023-05-19T00:37:20.555Z,6.82
2023-05-19T00:39:47.026Z,6.81
2023-05-19T00:42:14.176Z,6.78
2023-05-19T00:44:41.719Z,6.79
2023-05-19T00:47:08.786Z,6.77
2023-05-19T00:49:36.027Z,6.74
2023-05-19T00:52:02.841Z,6.72
2023-05-19T00:54:29.730Z,6.70
2023-05-19T00:56:58.285Z,6.68
2023-05-19T00:59:25.006Z,6.64
2023-05-19T01:01:51.575Z,6.64
2023-05-19T01:04:21.832Z,6.61
2023-05-19T01:06:54.970Z,6.60
2023-05-19T01:09:22.671Z,6.54
2023-05-19T01:11:50.370Z,6.48
2023-05-19T01:14:18.128Z,6.46
2023-05-19T01:16:54.495Z,6.43
2023-05-19T01:19:36.878Z,6.39
2023-05-19T01:22:37.038Z,6.37
2023-05-19T01:25:30.803Z,6.36
2023-05-19T01:28:30.364Z,6.36
2023-05-19T01:30:59.643Z,6.34
2023-05-19T01:33:28.498Z,6.33
2023-05-19T01:35:56.211Z,6.31
2023-05-19T01:38:24.815Z,6.31
2023-05-19T01:40:54.180Z,6.30
2023-05-19T01:43:23.946Z,6.27
2023-05-19T01:45:51.353Z,6.23
2023-05-19T01:48:18.671Z,6.21
2023-05-19T01:50:45.937Z,6.21
2023-05-19T01:53:12.577Z,6.19
2023-05-19T01:55:48.123Z,6.18
2023-05-19T01:58:31.382Z,6.14
2023-05-19T02:01:00.793Z,6.13
2023-05-19T02:04:01.331Z,6.11
2023-05-19T02:06:41.622Z,6.09
2023-05-19T02:09:18.573Z,6.09
2023-05-19T02:11:55.929Z,6.04
2023-05-19T02:14:32.870Z,5.99
2023-05-19T02:17:00.676Z,5.91
2023-05-19T02:19:32.365Z,5.89
2023-05-19T02:21:59.210Z,5.86
2023-05-19T02:24:26.017Z,5.89
2023-05-19T02:26:53.823Z,5.88
2023-05-19T02:29:21.076Z,5.84
2023-05-19T02:31:47.964Z,5.80
2023-05-19T02:34:14.865Z,5.77
2023-05-19T02:36:45.324Z,5.78
2023-05-19T02:39:12.240Z,5.76
2023-05-19T02:41:39.352Z,5.71
2023-05-19T02:44:05.827Z,5.67
2023-05-19T02:46:32.557Z,5.63
2023-05-19T02:48:59.530Z,5.58
2023-05-19T02:51:25.965Z,5.53
2023-05-19T02:53:52.463Z,5.50
2023-05-19T02:56:18.890Z,5.49
2023-05-19T02:58:45.351Z,5.48
2023-05-19T03:01:12.114Z,5.47
2023-05-19T03:03:38.617Z,5.47
2023-05-19T03:06:08.656Z,5.46
2023-05-19T03:08:36.118Z,5.43
2023-05-19T03:11:03.551Z,5.43
2023-05-19T03:13:30.019Z,5.44
2023-05-19T03:15:58.706Z,5.41
2023-05-19T03:18:26.541Z,5.40
2023-05-19T03:20:54.050Z,5.32
2023-05-19T03:23:21.652Z,5.29
2023-05-19T03:25:48.312Z,5.28
2023-05-19T03:28:14.793Z,5.28
2023-05-19T03:30:41.271Z,5.27
2023-05-19T03:33:07.881Z,5.24
2023-05-19T03:35:34.396Z,5.24
2023-05-19T03:38:00.903Z,5.22
2023-05-19T03:40:27.810Z,5.22
2023-05-19T03:42:57.178Z,5.20
2023-05-19T03:45:23.745Z,5.20
2023-05-19T03:47:50.199Z,5.24
2023-05-19T03:50:16.693Z,5.29
2023-05-19T03:52:45.464Z,5.33
2023-05-19T03:55:14.744Z,5.36
2023-05-19T03:57:41.546Z,5.34
2023-05-19T04:00:09.130Z,5.38
2023-05-19T04:02:35.726Z,5.41
2023-05-19T04:05:04.855Z,5.45
2023-05-19T04:07:31.719Z,5.52
2023-05-19T04:09:58.256Z,5.59
2023-05-19T04:12:24.705Z,5.66
2023-05-19T04:14:51.173Z,5.77
2023-05-19T04:17:17.656Z,6.10
2023-05-19T04:19:44.040Z,6.83
2023-05-19T04:22:10.490Z,7.17
2023-05-19T04:24:36.956Z,7.66
2023-05-19T04:27:04.774Z,8.09
2023-05-19T04:29:32.594Z,8.60
2023-05-19T04:31:59.044Z,9.55
2023-05-19T04:34:25.583Z,10.29
2023-05-19T04:36:53.446Z,10.81
2023-05-19T04:39:21.421Z,11.15
2023-05-19T04:41:48.274Z,11.09
2023-05-19T04:44:18.189Z,9.93
2023-05-19T04:46:45.306Z,9.58
2023-05-19T04:49:14.850Z,10.03
2023-05-19T04:51:42.334Z,10.78
2023-05-19T04:54:09.971Z,11.87
2023-05-19T04:56:36.717Z,12.48
2023-05-19T04:59:03.250Z,12.96
2023-05-19T05:01:31.437Z,13.14
2023-05-19T05:03:59.124Z,13.83
2023-05-19T05:06:26.446Z,14.08
2023-05-19T05:08:53.060Z,14.10
2023-05-19T05:11:19.804Z,13.56
2023-05-19T05:13:46.515Z,13.04
2023-05-19T05:16:13.931Z,12.72
2023-05-19T05:18:43.441Z,12.15
2023-05-19T05:21:11.470Z,12.39
2023-05-19T05:23:38.203Z,13.31
2023-05-19T05:26:11.067Z,13.79
2023-05-19T05:28:37.518Z,13.86
2023-05-19T05:31:04.008Z,14.21
2023-05-19T05:33:30.584Z,14.33
2023-05-19T05:35:57.055Z,14.18
2023-05-19T05:38:24.105Z,14.92
2023-05-19T05:40:50.636Z,14.91
2023-05-19T05:43:17.085Z,13.58
2023-05-19T05:45:43.524Z,13.21
2023-05-19T05:48:10.435Z,13.94
2023-05-19T05:50:37.288Z,14.87
2023-05-19T05:53:06.468Z,15.24
2023-05-19T05:55:33.510Z,15.34
2023-05-19T05:58:02.042Z,16.11
2023-05-19T06:00:28.873Z,16.39
2023-05-19T06:02:55.371Z,16.70
2023-05-19T06:05:22.062Z,16.57
2023-05-19T06:07:48.635Z,15.86
2023-05-19T06:10:15.049Z,15.33
2023-05-19T06:12:43.195Z,15.48
2023-05-19T06:15:10.484Z,16.75
2023-05-19T06:17:36.988Z,17.14
2023-05-19T06:20:05.890Z,16.42
2023-05-19T06:22:32.515Z,16.40
2023-05-19T06:24:59.034Z,16.65
2023-05-19T06:27:25.579Z,17.00
2023-05-19T06:29:52.544Z,16.64
2023-05-19T06:32:19.031Z,16.03
2023-05-19T06:34:45.645Z,16.61
2023-05-19T06:37:14.925Z,16.93
2023-05-19T06:39:41.314Z,17.67
2023-05-19T06:42:07.748Z,17.41
2023-05-19T06:44:34.174Z,17.23
2023-05-19T06:47:00.668Z,17.39
2023-05-19T06:49:29.353Z,17.24
2023-05-19T06:51:55.792Z,17.23
2023-05-19T06:54:22.218Z,17.75
2023-05-19T06:56:48.883Z,17.87
2023-05-19T06:59:16.169Z,17.65
2023-05-19T07:01:42.908Z,17.54
2023-05-19T07:04:09.582Z,17.67
2023-05-19T07:06:36.369Z,17.64
2023-05-19T07:09:05.207Z,17.69
2023-05-19T07:11:32.101Z,17.64
2023-05-19T07:13:58.506Z,17.33
2023-05-19T07:16:25.235Z,17.45
2023-05-19T07:18:51.847Z,16.87
2023-05-19T07:21:18.405Z,16.28
2023-05-19T07:23:44.948Z,16.29
2023-05-19T07:26:11.671Z,16.30
2023-05-19T07:28:40.793Z,16.36
2023-05-19T07:31:08.533Z,16.81
2023-05-19T07:33:35.005Z,17.27
2023-05-19T07:36:01.446Z,17.50
2023-05-19T07:38:28.813Z,17.85
2023-05-19T07:40:55.242Z,17.92
2023-05-19T07:43:21.808Z,18.17
2023-05-19T07:45:48.589Z,18.11
2023-05-19T07:48:15.204Z,17.92
2023-05-19T07:50:41.986Z,17.67
2023-05-19T07:53:08.398Z,17.19
2023-05-19T07:55:34.986Z,17.03
2023-05-19T07:58:01.671Z,17.41
2023-05-19T08:00:28.357Z,17.62
2023-05-19T08:02:56.935Z,17.08
2023-05-19T08:05:23.765Z,17.41
2023-05-19T08:07:50.447Z,17.53
2023-05-19T08:10:17.006Z,17.05
2023-05-19T08:12:44.145Z,17.13
2023-05-19T08:15:11.794Z,17.11
2023-05-19T08:17:38.352Z,17.23
2023-05-19T08:20:08.641Z,17.40
2023-05-19T08:22:35.171Z,17.14
2023-05-19T08:25:01.626Z,17.10
2023-05-19T08:27:28.073Z,17.04
2023-05-19T08:29:55.321Z,17.10
2023-05-19T08:32:22.120Z,16.98
2023-05-19T08:34:48.835Z,16.97
2023-05-19T08:37:15.536Z,17.04
2023-05-19T08:39:42.275Z,16.99
2023-05-19T08:42:10.017Z,17.00
2023-05-19T08:44:37.864Z,16.72
2023-05-19T08:47:12.815Z,16.78
2023-05-19T08:49:51.961Z,16.99
2023-05-19T08:52:30.367Z,16.89
2023-05-19T08:55:13.070Z,16.88
2023-05-19T08:57:40.741Z,17.18
2023-05-19T09:00:14.249Z,17.30
2023-05-19T09:02:50.584Z,17.44
2023-05-19T09:05:28.353Z,17.31
2023-05-19T09:07:55.056Z,17.35
2023-05-19T09:10:21.887Z,17.24
2023-05-19T09:12:49.763Z,17.09
2023-05-19T09:15:19.007Z,16.98
2023-05-19T09:17:47.957Z,16.72
2023-05-19T09:20:16.842Z,16.68
2023-05-19T09:22:47.674Z,16.74
2023-05-19T09:25:22.782Z,16.92
2023-05-19T09:27:50.490Z,17.22
2023-05-19T09:30:17.646Z,17.28
2023-05-19T09:32:44.768Z,17.15
2023-05-19T09:35:13.070Z,17.36
2023-05-19T09:37:41.172Z,17.55
2023-05-19T09:40:13.818Z,17.59
2023-05-19T09:42:41.877Z,17.82
2023-05-19T09:45:09.367Z,17.95
2023-05-19T09:47:40.241Z,17.79
2023-05-19T09:50:11.937Z,17.90
2023-05-19T09:52:39.805Z,18.02
2023-05-19T09:55:09.685Z,17.88
2023-05-19T09:57:37.656Z,17.64
2023-05-19T10:00:12.402Z,17.14
2023-05-19T10:02:42.987Z,16.93
2023-05-19T10:05:20.475Z,16.98
2023-05-19T10:07:49.855Z,16.98
2023-05-19T10:10:16.344Z,17.08
2023-05-19T10:12:43.446Z,17.29
2023-05-19T10:15:11.769Z,17.65
2023-05-19T10:17:40.542Z,17.77
2023-05-19T10:20:09.357Z,17.63
2023-05-19T10:22:36.194Z,17.59
2023-05-19T10:25:02.698Z,17.69
2023-05-19T10:27:30.577Z,17.62
2023-05-19T10:30:00.753Z,17.61
2023-05-19T10:32:31.262Z,17.76
2023-05-19T10:35:13.715Z,17.89
2023-05-19T10:37:45.077Z,18.19
2023-05-19T10:40:33.639Z,18.21
2023-05-19T10:43:25.208Z,18.13
2023-05-19T10:45:53.675Z,17.95
2023-05-19T10:48:24.717Z,18.02
2023-05-19T10:50:55.271Z,17.91
2023-05-19T10:53:22.853Z,17.84
2023-05-19T10:55:59.292Z,17.77
2023-05-19T10:58:44.203Z,17.85
2023-05-19T11:01:16.556Z,17.92
2023-05-19T11:03:53.794Z,17.96
2023-05-19T11:06:34.170Z,18.22
2023-05-19T11:09:13.777Z,18.09
2023-05-19T11:11:48.525Z,18.28
2023-05-19T11:14:17.824Z,18.63
2023-05-19T11:16:47.522Z,18.54
2023-05-19T11:19:38.004Z,18.72
2023-05-19T11:22:09.992Z,18.81
2023-05-19T11:24:47.940Z,18.72
2023-05-19T11:27:27.345Z,18.75
2023-05-19T11:30:02.381Z,18.62
2023-05-19T11:32:30.818Z,18.66
2023-05-19T11:34:58.319Z,18.62
2023-05-19T11:37:25.006Z,18.78
2023-05-19T11:39:52.847Z,18.75
2023-05-19T11:42:19.855Z,18.83
2023-05-19T11:44:46.852Z,18.80
2023-05-19T11:47:14.670Z,18.90
2023-05-19T11:49:45.812Z,18.89
2023-05-19T11:52:12.641Z,19.04
2023-05-19T11:54:42.032Z,19.12
2023-05-19T11:57:10.693Z,19.09
2023-05-19T11:59:39.152Z,18.96
2023-05-19T12:02:20.153Z,19.14
2023-05-19T12:04:49.940Z,18.97
2023-05-19T12:07:18.539Z,19.04
2023-05-19T12:09:46.721Z,18.85
2023-05-19T12:12:17.118Z,18.98
2023-05-19T12:14:44.756Z,18.80
2023-05-19T12:17:19.687Z,18.76
2023-05-19T12:19:48.337Z,18.87
2023-05-19T12:22:16.616Z,18.76
2023-05-19T12:24:44.580Z,18.61
2023-05-19T12:27:13.591Z,18.87
2023-05-19T12:29:40.563Z,19.12
2023-05-19T12:32:08.277Z,18.75
2023-05-19T12:34:38.892Z,18.59
2023-05-19T12:37:06.338Z,18.69
2023-05-19T12:39:33.720Z,18.51
2023-05-19T12:42:18.029Z,18.54
2023-05-19T12:44:46.968Z,18.62
2023-05-19T12:47:17.834Z,18.88
2023-05-19T12:49:59.948Z,18.84
2023-05-19T12:52:28.948Z,18.71
2023-05-19T12:55:07.349Z,18.84
2023-05-19T12:57:39.125Z,19.20
2023-05-19T13:00:09.859Z,19.32
2023-05-19T13:02:55.767Z,19.24
2023-05-19T13:05:22.818Z,19.23
2023-05-19T13:07:59.144Z,19.30
2023-05-19T13:10:27.665Z,19.26
2023-05-19T13:12:59.015Z,19.53
2023-05-19T13:15:26.866Z,19.65
2023-05-19T13:17:54.409Z,19.54
2023-05-19T13:20:21.967Z,19.42
2023-05-19T13:22:49.310Z,19.34
2023-05-19T13:25:16.681Z,19.08
2023-05-19T13:27:45.844Z,19.01
2023-05-19T13:30:12.731Z,19.25
2023-05-19T13:32:39.229Z,19.33
2023-05-19T13:35:06.598Z,19.34
2023-05-19T13:37:33.502Z,18.87
2023-05-19T13:40:00.483Z,18.75
2023-05-19T13:42:27.175Z,18.84
2023-05-19T13:44:56.723Z,19.05
2023-05-19T13:47:24.354Z,19.24
2023-05-19T13:49:51.606Z,19.41
2023-05-19T13:52:18.741Z,19.26
2023-05-19T13:54:45.197Z,19.34
2023-05-19T13:57:11.942Z,19.44
2023-05-19T13:59:48.913Z,19.39
2023-05-19T14:02:19.731Z,19.91
2023-05-19T14:04:46.858Z,20.01
2023-05-19T14:07:13.488Z,19.93
2023-05-19T14:09:39.901Z,20.24
2023-05-19T14:12:07.404Z,19.97
2023-05-19T14:14:33.876Z,19.59
2023-05-19T14:17:00.447Z,19.30
2023-05-19T14:19:30.148Z,19.31
2023-05-19T14:21:57.449Z,18.92
2023-05-19T14:24:24.071Z,19.29
2023-05-19T14:26:50.700Z,19.33
2023-05-19T14:29:17.282Z,19.54
2023-05-19T14:31:43.774Z,19.68
2023-05-19T14:34:10.538Z,19.75
2023-05-19T14:36:36.961Z,19.80
2023-05-19T14:39:03.526Z,19.76
2023-05-19T14:41:29.980Z,19.69
2023-05-19T14:43:56.558Z,19.54
2023-05-19T14:46:23.186Z,19.52
2023-05-19T14:48:49.864Z,19.79
2023-05-19T14:51:16.285Z,19.81
2023-05-19T14:53:42.681Z,19.64
2023-05-19T14:56:09.136Z,19.33
2023-05-19T14:58:35.554Z,19.58
2023-05-19T15:01:01.971Z,19.75
2023-05-19T15:03:28.468Z,19.64
2023-05-19T15:05:54.958Z,19.79
2023-05-19T15:08:21.378Z,19.80
2023-05-19T15:10:51.246Z,19.75
2023-05-19T15:13:18.922Z,19.60
2023-05-19T15:15:45.939Z,19.68
2023-05-19T15:18:13.309Z,19.73
2023-05-19T15:20:39.918Z,19.89
2023-05-19T15:23:06.389Z,19.88
2023-05-19T15:25:32.960Z,19.86
2023-05-19T15:27:59.653Z,19.86
2023-05-19T15:30:26.048Z,19.77
2023-05-19T15:32:52.660Z,19.83
2023-05-19T15:35:19.067Z,20.09
2023-05-19T15:37:45.636Z,20.05
2023-05-19T15:40:12.517Z,20.24
2023-05-19T15:42:38.894Z,20.01
2023-05-19T15:45:07.875Z,19.94
2023-05-19T15:47:34.561Z,19.64
2023-05-19T15:50:01.032Z,19.28
2023-05-19T15:52:27.672Z,19.50
2023-05-19T15:54:55.172Z,19.91
2023-05-19T15:57:21.832Z,20.14
2023-05-19T15:59:48.225Z,20.28
2023-05-19T16:02:14.688Z,20.23
2023-05-19T16:04:41.153Z,19.66
2023-05-19T16:07:07.647Z,19.44
2023-05-19T16:09:34.099Z,19.19
2023-05-19T16:12:00.707Z,18.95
2023-05-19T16:14:30.918Z,19.35
2023-05-19T16:16:57.380Z,19.60
2023-05-19T16:19:24.016Z,19.80
2023-05-19T16:21:50.585Z,19.83
2023-05-19T16:24:17.030Z,19.34
2023-05-19T16:26:43.446Z,19.36
2023-05-19T16:29:09.852Z,19.76
2023-05-19T16:31:36.333Z,20.02
2023-05-19T16:34:02.955Z,19.87
2023-05-19T16:36:29.612Z,19.41
2023-05-19T16:38:56.087Z,18.93
2023-05-19T16:41:22.633Z,18.79
2023-05-19T16:43:49.063Z,18.55
2023-05-19T16:46:15.519Z,18.40
2023-05-19T16:48:42.022Z,18.30
2023-05-19T16:51:08.467Z,18.55
2023-05-19T16:53:34.934Z,18.85
2023-05-19T16:56:01.420Z,19.27
2023-05-19T16:58:28.901Z,19.55
2023-05-19T17:00:57.716Z,19.36
2023-05-19T17:03:24.515Z,19.17
2023-05-19T17:05:51.240Z,18.90
2023-05-19T17:08:17.862Z,18.58
2023-05-19T17:10:44.854Z,18.30
2023-05-19T17:13:11.751Z,18.14
2023-05-19T17:15:38.235Z,18.02
2023-05-19T17:18:05.759Z,17.97
2023-05-19T17:20:32.446Z,17.99
2023-05-19T17:22:59.036Z,18.24
2023-05-19T17:25:25.822Z,18.44
2023-05-19T17:27:52.375Z,18.56
2023-05-19T17:30:18.851Z,18.54
2023-05-19T17:32:45.655Z,18.40
2023-05-19T17:35:12.172Z,18.29
2023-05-19T17:37:38.568Z,18.12
2023-05-19T17:40:05.572Z,18.00
2023-05-19T17:42:32.154Z,17.90
2023-05-19T17:44:58.652Z,17.82
2023-05-19T17:47:25.428Z,17.81
2023-05-19T17:49:53.055Z,17.76
2023-05-19T17:52:20.525Z,17.70
2023-05-19T17:54:47.778Z,17.66
2023-05-19T17:57:16.938Z,17.59
2023-05-19T17:59:43.706Z,17.53
2023-05-19T18:02:11.876Z,17.51
2023-05-19T18:04:38.594Z,17.46
2023-05-19T18:07:06.864Z,17.36
2023-05-19T18:09:40.581Z,17.21
2023-05-19T18:12:07.171Z,17.07
2023-05-19T18:14:33.756Z,16.99
2023-05-19T18:17:00.508Z,16.92
2023-05-19T18:19:27.023Z,16.74
2023-05-19T18:21:53.556Z,16.64
2023-05-19T18:24:19.964Z,16.52
2023-05-19T18:26:46.824Z,16.53
2023-05-19T18:29:14.568Z,16.41
2023-05-19T18:31:41.625Z,16.31
2023-05-19T18:34:11.518Z,16.23
2023-05-19T18:36:37.971Z,16.15
2023-05-19T18:39:07.329Z,16.04
2023-05-19T18:41:33.857Z,15.89
2023-05-19T18:44:00.356Z,15.82
2023-05-19T18:46:26.847Z,15.72
2023-05-19T18:48:53.321Z,15.57
2023-05-19T18:51:21.313Z,15.45
2023-05-19T18:53:49.992Z,15.42
2023-05-19T18:56:23.537Z,15.27
2023-05-19T18:58:50.181Z,15.28
2023-05-19T19:01:16.730Z,15.18
2023-05-19T19:03:43.692Z,15.15
2023-05-19T19:06:10.257Z,14.98
2023-05-19T19:08:36.702Z,14.78
2023-05-19T19:11:03.782Z,14.69
2023-05-19T19:13:30.190Z,14.70
2023-05-19T19:15:56.588Z,14.67
2023-05-19T19:18:23.025Z,14.67
2023-05-19T19:20:49.462Z,14.60
2023-05-19T19:23:16.107Z,14.44
2023-05-19T19:25:42.504Z,14.50
2023-05-19T19:28:09.253Z,14.41
2023-05-19T19:30:35.958Z,14.27
2023-05-19T19:33:03.443Z,14.16
2023-05-19T19:35:31.141Z,14.07
2023-05-19T19:37:58.677Z,14.00
2023-05-19T19:40:25.360Z,13.90
2023-05-19T19:42:51.763Z,13.84
2023-05-19T19:45:18.561Z,13.74
2023-05-19T19:47:45.117Z,13.68
2023-05-19T19:50:11.791Z,13.73
2023-05-19T19:52:38.475Z,13.77
2023-05-19T19:55:05.517Z,13.76
2023-05-19T19:57:34.071Z,13.74
2023-05-19T20:00:07.691Z,13.63
2023-05-19T20:02:36.007Z,13.52
2023-05-19T20:05:02.572Z,13.43
2023-05-19T20:07:29.352Z,13.42
2023-05-19T20:09:58.408Z,13.52
2023-05-19T20:12:25.310Z,13.60
2023-05-19T20:14:55.015Z,13.64
2023-05-19T20:17:21.538Z,13.58
2023-05-19T20:19:48.487Z,13.53
2023-05-19T20:22:15.125Z,13.46
2023-05-19T20:24:41.851Z,13.45
2023-05-19T20:27:09.357Z,13.55
2023-05-19T20:29:36.678Z,13.52
2023-05-19T20:32:03.217Z,13.47
2023-05-19T20:34:29.916Z,13.54
2023-05-19T20:36:56.403Z,13.50
2023-05-19T20:39:22.945Z,13.51
2023-05-19T20:41:49.342Z,13.40
2023-05-19T20:44:16.055Z,13.40
2023-05-19T20:46:42.774Z,13.41
2023-05-19T20:49:09.175Z,13.33
2023-05-19T20:51:35.818Z,13.35
2023-05-19T20:54:02.249Z,13.29
2023-05-19T20:56:28.662Z,13.25
2023-05-19T20:58:55.065Z,13.27
2023-05-19T21:01:21.702Z,13.19
2023-05-19T21:03:48.185Z,13.17
2023-05-19T21:06:14.569Z,13.13
2023-05-19T21:08:41.073Z,13.04
2023-05-19T21:11:07.577Z,13.07
2023-05-19T21:13:33.988Z,13.05
2023-05-19T21:16:00.519Z,13.04
2023-05-19T21:18:27.023Z,13.04
2023-05-19T21:20:53.683Z,13.03
2023-05-19T21:23:20.270Z,12.98
2023-05-19T21:25:46.745Z,12.99
2023-05-19T21:28:13.151Z,12.93
2023-05-19T21:30:39.531Z,12.85
2023-05-19T21:33:05.992Z,12.83
2023-05-19T21:35:32.487Z,12.73
2023-05-19T21:38:02.112Z,12.74
2023-05-19T21:40:35.604Z,12.80
2023-05-19T21:43:02.352Z,12.82
2023-05-19T21:45:29.088Z,12.72
2023-05-19T21:47:55.884Z,12.64
2023-05-19T21:50:22.324Z,12.60
2023-05-19T21:52:48.790Z,12.53
2023-05-19T21:55:15.614Z,12.50
2023-05-19T21:57:42.340Z,12.47
2023-05-19T22:00:12.865Z,12.47
2023-05-19T22:02:40.720Z,12.47
2023-05-19T22:05:07.590Z,12.44
2023-05-19T22:07:34.053Z,12.37
2023-05-19T22:10:00.914Z,12.39
2023-05-19T22:12:27.395Z,12.33
2023-05-19T22:14:53.813Z,12.25
2023-05-19T22:17:20.402Z,12.22
2023-05-19T22:19:47.050Z,12.22
2023-05-19T22:22:14.599Z,12.20
2023-05-19T22:24:41.322Z,12.10
2023-05-19T22:27:08.418Z,12.07
2023-05-19T22:29:35.380Z,11.97
2023-05-19T22:32:01.789Z,11.89
2023-05-19T22:34:28.291Z,11.86
2023-05-19T22:36:54.744Z,11.83
2023-05-19T22:39:21.258Z,11.87
2023-05-19T22:41:47.775Z,11.80
2023-05-19T22:44:16.163Z,11.67
2023-05-19T22:46:44.634Z,11.65
2023-05-19T22:49:11.061Z,11.64
2023-05-19T22:51:37.806Z,11.59
2023-05-19T22:54:04.196Z,11.58
2023-05-19T22:56:30.597Z,11.60
2023-05-19T22:58:57.102Z,11.51
2023-05-19T23:01:23.714Z,11.46
2023-05-19T23:03:50.192Z,11.42
2023-05-19T23:06:16.729Z,11.30
2023-05-19T23:08:46.726Z,11.27
2023-05-19T23:11:13.268Z,11.30
2023-05-19T23:13:39.676Z,11.25
2023-05-19T23:16:07.523Z,11.21
2023-05-19T23:18:34.211Z,11.16
2023-05-19T23:21:00.676Z,11.10
2023-05-19T23:23:28.694Z,11.05
2023-05-19T23:25:55.794Z,10.97
2023-05-19T23:28:22.194Z,11.02
2023-05-19T23:30:48.638Z,10.92
2023-05-19T23:33:15.055Z,10.94
2023-05-19T23:35:41.801Z,10.91
2023-05-19T23:38:08.201Z,10.83
2023-05-19T23:40:34.613Z,10.79
2023-05-19T23:43:01.115Z,10.83
2023-05-19T23:45:27.639Z,10.77
2023-05-19T23:47:54.162Z,10.77
2023-05-19T23:50:20.780Z,10.70
2023-05-19T23:52:48.090Z,10.69
2023-05-19T23:55:15.061Z,10.67
2023-05-19T23:57:42.122Z,10.68
